バンコク/スワンナプーム の空港の天気 - METARとTAF

スワンナプーム国際空港 ( VTBS / BKK ) - タイ サムットプラーカーン県 (バンコク近郊)
飛行場実況気象(Metar)
観測時間07/18 11:30 ICT (07/18 04:30 UTC)
風向・風速西 5m/s
視程10km以上
天気現象
全天の4割程度の雲 雲底高度 610m
全天の8割程度の雲 雲底高度 1520m
気温29℃
湿度66%
気圧1003hPa
METARVTBS 180430Z 26009KT 210V280 9999 SCT020 BKN050 29/22 Q1003 NOSIG
過去の天気等 Google飛行場航空写真 Wunderground天気予報

過去48時間のMETAR

飛行場予報(TAF)
発表時間: 7/18 06:00 ICT (7/17 23:00 UTC)
予報対象時間: 18日7時 ICT ~ 19日13時 ICT
風向・風速南西 4m/s
視程10km以上
少しの雲 雲底高度 610m
全天の8割程度の雲 雲底高度 3050m
18日13時 ICT ~ 18日19時 ICT に一時的に
風向・風速不定 5m/s
視程5000m
天気現象雷雨
少しの積乱雲 雲底高度 550m
全天の4割程度の雲 雲底高度 910m
全天の8割程度の雲 雲底高度 3050m
18日23時 ICT ~ 19日5時 ICT に一時的に
風向・風速不定 5m/s
視程5000m
天気現象雷雨
少しの積乱雲 雲底高度 550m
全天の4割程度の雲 雲底高度 910m
全天の8割程度の雲 雲底高度 3050m
19日7時 ICT ~ 19日13時 ICT に一時的に
風向・風速不定 5m/s
視程5000m
天気現象雷雨
少しの積乱雲 雲底高度 550m
全天の4割程度の雲 雲底高度 910m
全天の8割程度の雲 雲底高度 3050m
TAF VTBS 172300Z 1800/1906 23008KT 9999 FEW020 BKN100
TEMPO 1806/1812 VRB10KT 5000 TSRA FEW018CB SCT030 BKN100
TEMPO 1816/1822 VRB10KT 5000 TSRA FEW018CB SCT030 BKN100
TEMPO 1900/1906 VRB10KT 5000 TSRA FEW018CB SCT030 BKN100